This is the latest recevied weather packets stored in our database for station/object SR4DIG-13. If no packets are shown the sender has not sent any weather packets the latest 10 day(s).
| Time | Temp. | Humidity | Pressure | Rain* | Wind** | Luminosity | Snow |
|---|---|---|---|---|---|---|---|
| 1788168516 | 31.67° C | 38% | 1013.4 hPa | 0 mm | - | - | - |
| 1788168214 | 33.89° C | 38% | 1013.1 hPa | 0 mm | - | - | - |
| 1788167300 | 32.78° C | 40% | 1013.5 hPa | 0 mm | - | - | - |
| 1788167001 | 32.78° C | 40% | 1013.5 hPa | 0 mm | - | - | - |
| 1788166398 | 32.22° C | 41% | 1013.6 hPa | 0 mm | - | - | - |
| 1788166097 | 32.22° C | 40% | 1013.7 hPa | 0 mm | - | - | - |
| 1788165495 | 32.78° C | 40% | 1013.6 hPa | 0 mm | - | - | - |
| 1788165194 | 32.78° C | 40% | 1013.6 hPa | 0 mm | - | - | - |
| 1788164893 | 32.22° C | 41% | 1013.6 hPa | 0 mm | - | - | - |
| 1788164593 | 32.22° C | 41% | 1013.6 hPa | 0 mm | - | - | - |
| 1788164291 | 31.67° C | 41% | 1013.8 hPa | 0 mm | - | - | - |
| 1788163990 | 32.22° C | 40% | 1013.7 hPa | 0 mm | - | - | - |
| 1788163689 | 32.78° C | 39% | 1013.7 hPa | 0 mm | - | - | - |
| 1788163389 | 33.33° C | 39% | 1013.7 hPa | 0 mm | - | - | - |
| 1788163088 | 33.89° C | 40% | 1013.6 hPa | 0 mm | - | - | - |
| 1788162787 | 33.89° C | 40% | 1013.6 hPa | 0 mm | - | - | - |
| 1788162486 | 33.89° C | 40% | 1013.6 hPa | 0 mm | - | - | - |
| 1788162185 | 32.22° C | 42% | 1013.7 hPa | 0 mm | - | - | - |
| 1788161596 | 31.11° C | 45% | 1013.6 hPa | 0 mm | - | - | - |
| 1788160995 | 29.44° C | 49% | 1013.8 hPa | 0 mm | - | - | - |
| 1788160694 | 27.78° C | 51% | 1013.8 hPa | 0 mm | - | - | - |
| 1788160392 | 27.78° C | 51% | 1013.7 hPa | 0 mm | - | - | - |
| 1788160092 | 27.22° C | 52% | 1013.7 hPa | 0 mm | - | - | - |
| 1788159791 | 26.67° C | 53% | 1013.7 hPa | 0 mm | - | - | - |
| 1788159490 | 26.11° C | 55% | 1013.7 hPa | 0 mm | - | - | - |
* Rain latest hour (hover to see other rain measurements)
** Current wind speed in m/s (hover to see current wind gust speed)